Weather observations for the past three days for
Ahoskie, Tri-County Airport
Imperial (Metric)
Date Time (edt) Wind (mph) Vis. (mi.) Weather Sky Cond. Temperature (ºF) Relative Humidity Wind Chill (°F) Heat Index (°F) Pressure Precipitation (in)
Air Dwpt 6 hour altimeter (in) sea level (mb) 1 hr 3 hr 6 hr
Max. Min.
06 00:55 S 7 10.00 Fair CLR 62.4 52.7 71% 30.02 0.0
06 00:35 S 10 10.00 Fair CLR 62.4 52.9 71% 30.01 0.0
06 00:15 S 6 10.00 Fair CLR 62.4 52.9 71% 30.02 0.0
05 23:55 S 7 10.00 Fair CLR 63.5 53.1 69% 30.01 0.0
05 23:35 S 7 10.00 Fair CLR 64 53.6 69% 30.02 0.0
05 23:15 S 10 G 16 10.00 Fair CLR 64.4 53.8 69% 30.01 0.0
05 22:55 S 10 10.00 Fair CLR 65.1 54.5 69% 30.02 0.0
05 22:35 S 10 10.00 Fair CLR 65.3 54.5 68% 30.01 0.0
05 22:15 S 8 G 17 10.00 Fair CLR 66.2 54.5 66% 30.01 0.0
05 21:55 S 13 G 18 10.00 Fair CLR 66.6 54.7 66% 30.01 0.0
05 21:35 S 8 10.00 Fair CLR 66.7 54.9 66% 30 0.0
05 21:15 S 8 10.00 Fair CLR 67.6 54.9 64% 29.99 0.0
05 20:55 S 10 10.00 Fair CLR 68.7 54.7 61% 29.99 0.0
05 20:35 S 12 G 17 10.00 Fair CLR 69.4 54.5 59% 29.98 0.0
05 20:15 S 13 10.00 Fair CLR 70.5 54 56% 29.97 0.0
05 19:55 S 13 G 17 10.00 Fair CLR 71.4 53.6 80.6 71.4 54% 29.97 0.0
05 19:35 S 13 G 23 10.00 Fair CLR 73.2 53.6 50% 29.96 0.0
05 19:15 S 12 G 17 10.00 Fair CLR 74.3 54.5 50% 29.96 0.0
05 18:55 S 9 G 17 10.00 Partly Cloudy SCT060 74.5 54.5 50% 29.96 0.0
05 18:35 S 9 G 17 10.00 Partly Cloudy SCT060 76.5 53.6 45% 78 29.95 0.0
05 18:15 S 10 G 17 10.00 Fair CLR 78.1 51.8 40% 79 29.96 0.0
05 17:55 S 9 G 20 10.00 Fair CLR 78.3 51.3 39% 79 29.96 0.0
05 17:35 SW 10 G 20 10.00 Fair CLR 78.3 51.8 40% 79 29.96 0.0
05 17:15 S 8 10.00 Fair CLR 77.4 51.4 40% 78 29.96 0.0
05 16:55 S 13 G 18 10.00 Fair CLR 77.5 50.7 39% 78 29.96 0.0
05 16:35 SW 12 G 18 10.00 Fair CLR 79 51.3 38% 79 29.96 0.0
05 16:15 S 10 G 21 10.00 Fair CLR 78.4 51.1 39% 79 29.96 0.0
05 15:55 S 9 G 20 10.00 Fair CLR 80.1 51.4 37% 80 29.97 0.0
05 15:35 SW 13 G 17 10.00 Fair CLR 79.5 51.3 37% 79 29.99 0.0
05 15:15 SW 10 G 18 10.00 Fair CLR 79.2 51.3 38% 79 30 0.0
05 14:55 S 14 G 18 10.00 Fair CLR 79.7 50.9 37% 79 30 0.0
05 14:35 S 10 G 21 10.00 Fair CLR 78.8 50.4 37% 79 30.01 0.0
05 14:15 SW 10 10.00 Fair CLR 79.2 50.9 37% 79 30.01 0.0
05 13:55 S 13 G 18 10.00 Fair CLR 78.4 50.9 78.8 59 38% 79 30.01 0.0
05 13:35 S 7 10.00 Fair CLR 77.7 50.2 38% 78 30.01 0.0
05 13:15 SW 6 G 17 10.00 Fair CLR 77.7 51.8 41% 79 30.01 0.0
05 12:55 SW 10 G 16 10.00 Fair CLR 76.8 51.6 41% 78 30.03 0.0
05 12:35 S 12 G 22 10.00 Fair CLR 76.1 51.4 42% 78 30.03 0.0
05 12:15 S 10 G 16 10.00 Fair CLR 75.4 51.6 44% 78 30.04 0.0
05 11:55 SW 9 G 16 10.00 Fair CLR 74.8 52.3 46% 30.04 0.0
05 11:35 S 7 10.00 Fair CLR 74.3 52.5 47% 30.04 0.0
05 11:15 SW 7 10.00 Fair CLR 73.2 53.1 49% 30.05 0.0
05 10:55 S 7 10.00 Fair CLR 72.3 53.2 51% 30.04 0.0
05 10:35 SW 6 10.00 Fair CLR 70.7 52.2 52% 30.04 0.0
05 10:15 SW 8 10.00 Fair CLR 70.2 52 53% 30.05 0.0
05 09:55 SW 8 10.00 Fair CLR 68.7 51.8 55% 30.05 0.0
05 09:35 SW 8 10.00 Fair CLR 67.5 52.2 58% 30.05 0.0
05 09:15 SW 6 10.00 Fair CLR 65.5 51.6 61% 30.05 0.0
05 08:55 SW 6 10.00 Fair CLR 64.2 51.3 63% 30.05 0.0
05 08:35 SW 5 10.00 Fair CLR 62.6 51.1 66% 30.05 0.0
05 08:15 S 7 10.00 Fair CLR 60.8 50.7 70% 30.05 0.0
05 07:55 S 6 10.00 Fair CLR 58.8 50.5 58.8 51.4 74% 30.05 0.0
05 07:35 S 7 10.00 Fair CLR 56.8 50 78% 30.04 0.0
05 07:15 S 5 10.00 Fair CLR 54.7 50 84% 30.04 0.0
05 06:55 S 5 10.00 Fair CLR 53.4 49.6 87% 30.04 0.0
05 06:35 S 5 10.00 Fair CLR 52.5 49.6 90% 30.03 0.0
05 06:15 S 3 10.00 Fair CLR 52.2 49.5 91% 30.03 0.0
05 05:55 S 3 10.00 Fair CLR 51.6 49.6 93% 30.02 0.0
05 05:35 S 5 10.00 Fair CLR 52.5 49.3 89% 30.02 0.0
05 05:15 S 3 10.00 Fair CLR 52.7 49.5 89% 30.01 0.0
05 04:55 S 3 10.00 Fair CLR 52.5 48.7 87% 30.01 0.0
05 04:35 S 3 10.00 Fair CLR 52.7 48.6 86% 30.01 0.0
05 04:15 S 3 10.00 Fair CLR 53.8 48.6 83% 30.01 0.0
05 03:55 S 3 10.00 Fair CLR 54.7 48.4 79% 30 0.0
05 03:35 S 3 10.00 Fair CLR 55.8 48.4 76% 30 0.0
05 03:15 S 5 10.00 Fair CLR 56.5 48.6 75% 30 0.0
05 02:55 S 5 10.00 Fair CLR 56.7 48.4 74% 30 0.0
05 02:35 S 5 10.00 Fair CLR 57.4 48.6 73% 30 0.0
05 02:15 S 5 10.00 Fair CLR 57.6 48.6 72% 30 0.0
05 01:55 S 5 10.00 Fair CLR 57.2 48.6 69.8 57.2 73% 30 0.0
05 01:35 S 5 10.00 Fair CLR 57.9 48.4 71% 30 0.0
05 01:15 S 6 10.00 Fair CLR 58.8 48.6 69% 30.01 0.0
05 00:55 S 5 10.00 Fair CLR 57.7 48.6 72% 30.01 0.0
05 00:35 S 5 10.00 Fair CLR 59.4 48.7 68% 30.01 0.0
05 00:15 S 5 10.00 Fair CLR 60.3 48.7 66% 30 0.0
04 23:55 S 6 10.00 Fair CLR 60.8 48.7 65% 30 0.0
04 23:35 S 6 10.00 Fair CLR 61.2 48.7 64% 30 0.0
04 23:15 S 7 10.00 Fair CLR 61.9 48.7 62% 30 0.0
04 22:55 S 9 10.00 Fair CLR 62.1 48.7 62% 30 0.0
04 22:35 S 9 10.00 Fair CLR 62.6 48.9 61% 29.99 0.0
04 22:15 S 9 G 16 10.00 Fair CLR 63.5 49.1 60% 29.98 0.0
04 21:55 S 8 10.00 Fair CLR 64.6 49.3 58% 29.98 0.0
04 21:35 S 10 10.00 Fair CLR 65.1 50.2 59% 29.98 0.0
04 21:15 S 8 10.00 Fair CLR 66.2 50.9 58% 29.97 0.0
04 20:55 S 10 10.00 Fair CLR 66.7 51.3 58% 29.96 0.0
04 20:35 S 12 G 18 10.00 Fair CLR 67.3 49.6 53% 29.95 0.0
04 20:15 S 7 10.00 Fair CLR 68.5 43.7 41% 29.94 0.0
04 19:55 S 5 10.00 Fair CLR 70 43.7 77.9 70 39% 29.93 0.0
04 19:35 S 3 10.00 Fair CLR 71.6 43.5 37% 29.93 0.0
04 19:15 S 3 10.00 Fair CLR 72.5 43.5 35% 29.93 0.0
04 18:55 SW 6 10.00 Fair CLR 74.5 42.6 32% 29.93 0.0
04 18:35 S 8 10.00 Fair CLR 75.2 42.4 31% 77 29.93 0.0
04 17:55 S 6 10.00 Fair CLR 74.8 42.3 31% 29.93 0.0
04 17:35 S 10 10.00 Fair CLR 76.5 42.6 30% 77 29.93 0.0
04 17:15 SW 8 G 16 10.00 Fair CLR 77.2 41.9 28% 78 29.93 0.0
04 16:55 SW 9 G 17 10.00 Fair CLR 76.8 40.8 28% 77 29.93 0.0
04 16:35 SW 9 G 17 10.00 Fair CLR 77.2 41 27% 78 29.93 0.0
04 16:15 SW 8 10.00 Fair CLR 77 40.8 27% 77 29.94 0.0
04 15:55 SW 9 10.00 Fair CLR 77 42.1 29% 78 29.94 0.0
04 15:35 SW 9 G 17 10.00 Fair CLR 76.5 43 30% 77 29.95 0.0
04 15:15 SW 9 G 17 10.00 Fair CLR 76.3 43 31% 77 29.95 0.0
04 14:55 SW 12 G 21 10.00 Fair CLR 76.8 42.3 29% 78 29.96 0.0
04 14:35 S 8 10.00 Fair CLR 75.4 42.4 31% 77 29.96 0.0
04 14:15 SW 6 10.00 Fair CLR 75.6 43.5 32% 77 29.97 0.0
04 13:55 SW 8 G 18 10.00 Fair CLR 74.7 44.6 74.8 52.3 34% 29.98 0.0
04 13:35 SW 8 10.00 Fair CLR 73.8 45 36% 29.99 0.0
04 13:15 W 6 10.00 Fair CLR 73.6 44.8 36% 29.99 0.0
04 12:55 SW 7 10.00 Fair CLR 72.5 45.7 38% 30 0.0
04 12:35 SW 5 10.00 Fair CLR 72.7 45.9 38% 30.01 0.0
04 12:15 S 10 10.00 Partly Cloudy SCT002 71.2 46.2 41% 30.02 0.0
04 11:55 SW 6 10.00 Fair CLR 70.2 46.2 42% 30.02 0.0
04 11:35 S 9 10.00 Fair CLR 68.7 46.9 46% 30.03 0.0
04 11:15 SW 7 10.00 Fair CLR 68 47.3 48% 30.03 0.0
04 10:55 S 6 10.00 Fair CLR 66.9 48.4 52% 30.04 0.0
04 10:35 SW 7 10.00 Fair CLR 65.5 47.7 53% 30.04 0.0
04 10:15 W 6 10.00 Fair CLR 64.4 47.5 54% 30.04 0.0
04 09:55 SW 6 10.00 Fair CLR 63 48.2 59% 30.04 0.0
04 09:35 SW 7 10.00 Fair CLR 61.5 48.7 63% 30.04 0.0
04 09:15 SW 6 10.00 Fair CLR 58.8 47.7 67% 30.05 0.0
04 08:55 SW 7 10.00 Fair CLR 56.7 47.3 71% 30.05 0.0
04 08:35 SW 5 10.00 Fair CLR 55.2 46.9 74% 30.06 0.0
04 08:15 SW 6 10.00 Fair CLR 54 46.2 75% 30.06 0.0
04 07:55 SW 3 10.00 Fair CLR 52 45.9 52 41.9 80% 30.06 0.0
04 07:35 Calm 10.00 Fair CLR 49.6 45 84% 30.06 0.0
04 07:15 Calm 10.00 Fair CLR 46.4 44.6 93% 30.06 0.0
04 06:55 Calm 10.00 Fair CLR 43.3 42.4 97% 30.06 0.0
04 06:35 S 3 10.00 Fair CLR 42.1 41.7 99% 30.06 0.0
04 06:15 S 3 10.00 Fair CLR 41.9 41 97% 30.06 0.0
04 05:55 Calm 10.00 Fair CLR 43.3 40.1 88% 30.06 0.0
04 05:35 Calm 10.00 Fair CLR 43.5 39.7 87% 30.06 0.0
04 05:15 S 3 10.00 Fair CLR 42.3 39.2 89% 30.06 0.0
04 04:55 S 3 10.00 Partly Cloudy SCT120 43.5 39.4 85% 30.07 0.0
04 04:35 S 5 10.00 Overcast OVC120 43.5 39.6 86% 41 30.07 0.0
04 04:15 S 5 10.00 Overcast OVC120 43.3 40.3 89% 41 30.07 0.0
04 03:55 S 3 10.00 Mostly Cloudy BKN120 43 37.9 82% 30.07 0.0
04 03:35 Calm 10.00 Mostly Cloudy BKN120 43.5 37.8 80% 30.07 0.0
04 03:15 S 3 10.00 Partly Cloudy SCT120 43.7 37.8 80% 30.07 0.0
04 02:55 S 3 10.00 Partly Cloudy SCT120 43.9 37.8 79% 30.07 0.0
04 02:35 S 3 10.00 Fair CLR 42.1 37.6 84% 30.08 0.0
04 02:15 Calm 10.00 Fair CLR 41.9 37.4 84% 30.07 0.0
04 01:55 SE 3 10.00 Fair CLR 42.3 36.9 52.3 38.8 81% 30.08 0.0
04 01:35 SE 5 10.00 Fair CLR 40.3 36.7 87% 38 30.07 0.0
04 01:15 SE 3 10.00 Fair CLR 39.7 38.8 97% 30.08 0.0
04 00:55 Calm 10.00 Fair CLR 39.2 38.7 98% 30.08 0.0
04 00:35 Calm 10.00 Fair CLR 39.7 39.2 98% 30.07 0.0
04 00:15 Calm 10.00 Fair CLR 40.1 39.7 99% 30.07 0.0
03 23:55 Calm 10.00 Fair CLR 41 38.7 91% 30.08 0.0
03 23:35 S 3 10.00 Fair CLR 40.3 37.6 90% 30.07 0.0
03 23:15 S 3 10.00 Fair CLR 41 39.6 95% 30.07 0.0
03 22:55 S 3 10.00 Fair CLR 40.3 39.6 97% 30.07 0.0
03 22:35 Calm 10.00 Fair CLR 41.2 39.4 93% 30.07 0.0
03 22:15 Calm 10.00 Fair CLR 42.1 40.3 93% 30.07 0.0
03 21:55 Calm 10.00 Fair CLR 43.2 38.8 85% 30.07 0.0
03 21:35 Calm 10.00 Fair CLR 43.2 38.1 82% 30.07 0.0
03 21:15 Calm 10.00 Fair CLR 45.1 36.1 71% 30.06 0.0
03 20:55 Calm 10.00 Fair CLR 46.4 38.7 75% 30.05 0.0
03 20:35 Calm 10.00 Fair CLR 48 36.9 65% 30.04 0.0
03 20:15 Calm 10.00 Fair CLR 51.1 34.9 54% 30.04 0.0
03 19:55 Calm 10.00 Fair CLR 52 36 62.8 52 55% 30.03 0.0
03 19:35 Calm 10.00 Fair CLR 59.4 30.2 33% 30.03 0.0
03 19:15 W 3 10.00 Fair CLR 60.4 29.3 31% 30.02 0.0
03 18:55 W 3 10.00 Fair CLR 61.2 28.8 29% 30.02 0.0
03 18:35 W 6 10.00 Fair CLR 61.9 30.4 31% 30.02 0.0
03 18:15 NW 8 10.00 Fair CLR 62.1 30.6 31% 30.02 0.0
03 17:55 NW 7 10.00 Fair CLR 61.9 30.4 31% 30.01 0.0
03 17:35 W 7 10.00 Fair CLR 62.6 30.4 30% 30.02 0.0
03 17:15 NW 9 10.00 Fair CLR 62.6 29.3 28% 30.02 0.0
03 16:55 W 8 10.00 Fair CLR 62.6 30 29% 30.01 0.0
03 16:35 W 7 10.00 Fair CLR 62.2 30.9 31% 30.02 0.0
03 16:15 NW 3 G 16 10.00 Fair CLR 62.2 30.7 31% 30.03 0.0
03 15:55 NW 5 10.00 Fair CLR 62.2 31.3 31% 30.03 0.0
03 15:35 W 7 10.00 Fair CLR 62.4 30.9 31% 30.04 0.0
03 15:15 NW 3 10.00 Fair CLR 61.2 32.2 34% 30.04 0.0
03 14:55 NW 6 10.00 Fair CLR 61 30.7 32% 30.05 0.0
03 14:35 W 8 10.00 Fair CLR 60.8 31.8 34% 30.05 0.0
03 14:15 NW 8 10.00 Fair CLR 61 33.4 36% 30.06 0.0
03 13:55 W 7 G 18 10.00 Fair CLR 59.2 32 60.3 46.8 36% 30.06 0.0
03 13:35 W 6 G 18 10.00 Fair CLR 58.8 32 36% 30.06 0.0
03 13:15 NW 13 G 17 10.00 Fair CLR 58.8 33.3 38% 30.07 0.0
03 12:55 NW 8 G 18 10.00 Fair CLR 58.3 33.6 40% 30.08 0.0
03 12:35 NW 12 G 17 10.00 Partly Cloudy SCT050 57.4 33.1 40% 30.08 0.0
03 12:15 N 7 G 17 10.00 Partly Cloudy SCT050 55.8 32.5 41% 30.09 0.0
03 11:55 NW 6 10.00 Mostly Cloudy BKN050 55.8 33.8 44% 30.09 0.0
03 11:35 NW 7 10.00 Partly Cloudy SCT050 55.8 34.5 45% 30.1 0.0
03 11:15 NW 10 10.00 Partly Cloudy SCT050 55.6 34.7 46% 30.09 0.0
03 10:55 NW 7 10.00 Partly Cloudy SCT050 54.9 34.7 47% 30.09 0.0
03 10:35 N 9 G 17 10.00 Fair CLR 54.3 33.3 45% 30.1 0.0
03 10:15 NW 10 10.00 Fair CLR 53.4 34.3 49% 30.09 0.0
03 09:55 NW 7 10.00 Fair CLR 54 37.6 54% 30.09 0.0
03 09:35 NW 7 10.00 Fair CLR 52.3 36.3 55% 30.08 0.0
03 09:15 NW 3 10.00 Fair CLR 51.8 38.5 61% 30.08 0.0
03 08:55 N 5 10.00 Fair CLR 50.4 39.9 68% 30.09 0.0
03 08:35 NW 5 10.00 Fair CLR 49.3 40.5 72% 48 30.08 0.0
03 08:15 NW 5 10.00 Fair CLR 48.2 41.7 78% 47 30.07 0.0
03 07:55 NW 3 10.00 Partly Cloudy SCT070 46.6 42.1 46.8 42.3 84% 30.06 0.0
03 07:35 NW 3 10.00 Mostly Cloudy BKN070 45.9 43.9 93% 30.05 0.0
03 07:15 Calm 10.00 Mostly Cloudy SCT060 BKN080 44.4 43.2 95% 30.05 0.0
03 06:55 Calm 10.00 Partly Cloudy SCT070 SCT075 42.8 42.8 100% 30.03 0.0
03 06:35 Calm 10.00 Mostly Cloudy SCT060 BKN085 43.2 42.4 97% 30.02 0.0
03 06:15 NW 3 10.00 Overcast SCT060 SCT075 OVC085 43 43 100% 30.01 0.0
03 05:55 Calm 10.00 Mostly Cloudy BKN085 42.4 42.4 100% 30 0.0
03 05:35 NW 5 10.00 Mostly Cloudy SCT075 BKN085 42.4 42.4 100% 40 29.99 0.0
03 05:15 NW 5 10.00 Mostly Cloudy SCT075 BKN085 42.6 42.6 100% 40 29.98 0.0
03 04:55 NW 3 10.00 Partly Cloudy SCT065 43 43 100% 29.98 0.0
03 04:35 Calm 10.00 Mostly Cloudy BKN065 BKN075 43.2 43.2 100% 29.96 0.0
03 04:15 Calm 10.00 Mostly Cloudy BKN065 43.7 43.7 100% 29.96 0.0
03 03:55 Calm 10.00 Mostly Cloudy BKN065 44.1 44.1 100% 29.95 0.0
03 03:40 Calm 10.00 Mostly Cloudy BKN065 44.1 44.1 100% 29.95 0.0
03 03:15 Calm 7.00 Mostly Cloudy BKN065 BKN080 44.2 44.2 100% 29.94 0.0
03 02:55 Calm 10.00 Overcast OVC065 44.1 44.1 100% 29.94 0.0
03 02:35 Calm 10.00 Overcast BKN065 OVC080 45.1 45.1 100% 29.93 0.0
03 02:15 Calm 10.00 Mostly Cloudy SCT065 BKN085 44.8 44.8 100% 29.94 0.0
03 01:55 Calm 10.00 Mostly Cloudy SCT065 BKN085 44.4 44.4 51.8 44.2 100% 29.94 0.0
03 01:35 Calm 10.00 Mostly Cloudy SCT065 BKN085 44.8 44.8 100% 29.94 0.0
03 01:15 SW 3 7.00 Partly Cloudy SCT065 45 45 100% 29.94 0.0
Date Time (edt) Wind (mph) Vis. (mi.) Weather Sky Cond. Air Dwpt Max. Min. Relative Humidity Wind Chill (°F) Heat Index (°F) altimeter (in) sea level (mb) 1 hr 3 hr 6 hr
6 hour
Temperature (ºF) Pressure Precipitation (in)